createdAt,value
2022-08-17T00:02:25.876Z,58.94
2022-08-17T00:04:54.916Z,58.18
2022-08-17T00:07:22.561Z,59.16
2022-08-17T00:09:49.750Z,58.42
2022-08-17T00:15:10.875Z,60.29
2022-08-17T00:17:38.387Z,60.26
2022-08-17T00:20:06.358Z,60.06
2022-08-17T00:22:36.543Z,59.43
2022-08-17T00:25:09.509Z,59.79
2022-08-17T00:27:37.039Z,59.06
2022-08-17T00:30:09.848Z,58.07
2022-08-17T00:33:14.778Z,59.78
2022-08-17T00:35:29.833Z,58.82
2022-08-17T00:37:57.033Z,59.96
2022-08-17T00:40:24.812Z,60.09
2022-08-17T00:42:53.223Z,60.35
2022-08-17T00:45:21.052Z,60.47
2022-08-17T00:47:49.460Z,60.57
2022-08-17T00:50:18.751Z,59.62
2022-08-17T00:52:53.533Z,59.83
2022-08-17T00:55:21.392Z,59.15
2022-08-17T00:57:55.524Z,59.31
2022-08-17T01:00:31.456Z,59.89
2022-08-17T01:03:08.506Z,58.67
2022-08-17T01:05:42.360Z,60.07
2022-08-17T01:08:13.611Z,59.88
2022-08-17T01:10:58.443Z,61.20
2022-08-17T01:13:41.268Z,60.79
2022-08-17T01:16:20.324Z,60.59
2022-08-17T01:18:50.485Z,60.37
2022-08-17T01:21:26.898Z,60.67
2022-08-17T01:23:54.108Z,60.51
2022-08-17T01:26:21.876Z,60.74
2022-08-17T01:28:54.926Z,59.82
2022-08-17T01:31:25.183Z,60.94
2022-08-17T01:33:52.725Z,60.66
2022-08-17T01:36:20.247Z,60.85
2022-08-17T01:38:47.411Z,61.01
2022-08-17T01:41:16.547Z,61.47
2022-08-17T01:43:54.688Z,60.53
2022-08-17T01:46:27.588Z,60.40
2022-08-17T01:48:57.314Z,61.85
2022-08-17T01:51:32.852Z,61.03
2022-08-17T01:54:13.367Z,60.91
2022-08-17T01:56:43.786Z,61.45
2022-08-17T01:59:15.827Z,61.95
2022-08-17T02:01:43.647Z,61.19
2022-08-17T02:04:11.161Z,61.44
2022-08-17T02:06:52.474Z,61.53
2022-08-17T02:09:29.534Z,61.48
2022-08-17T02:11:59.612Z,61.64
2022-08-17T02:14:27.059Z,61.89
2022-08-17T02:16:54.438Z,61.48
2022-08-17T02:19:22.411Z,62.64
2022-08-17T02:21:52.676Z,62.76
2022-08-17T02:24:58.875Z,63.25
2022-08-17T02:27:11.556Z,61.75
2022-08-17T02:29:38.629Z,62.31
2022-08-17T02:32:06.067Z,62.16
2022-08-17T02:34:33.184Z,61.83
2022-08-17T02:37:00.346Z,61.95
2022-08-17T02:39:27.497Z,61.43
2022-08-17T02:42:01.892Z,62.45
2022-08-17T02:44:38.677Z,61.71
2022-08-17T02:47:08.985Z,62.64
2022-08-17T02:49:36.842Z,63.96
2022-08-17T02:52:05.793Z,64.01
2022-08-17T02:54:41.405Z,64.46
2022-08-17T02:57:10.205Z,65.41
2022-08-17T02:59:39.519Z,65.04
2022-08-17T03:02:11.764Z,65.05
2022-08-17T03:04:38.900Z,64.91
2022-08-17T03:07:06.710Z,65.22
2022-08-17T03:09:33.960Z,63.94
2022-08-17T03:12:10.965Z,65.27
2022-08-17T03:14:41.682Z,65.19
2022-08-17T03:17:17.018Z,64.25
2022-08-17T03:19:44.919Z,64.12
2022-08-17T03:22:35.986Z,64.46
2022-08-17T03:24:59.222Z,64.21
2022-08-17T03:27:26.649Z,65.54
2022-08-17T03:29:54.390Z,65.21
2022-08-17T03:32:21.514Z,65.06
2022-08-17T03:34:48.846Z,64.77
2022-08-17T03:37:15.967Z,64.65
2022-08-17T03:39:47.444Z,64.52
2022-08-17T03:42:32.188Z,64.90
2022-08-17T03:45:01.547Z,65.71
2022-08-17T03:47:47.220Z,66.46
2022-08-17T03:50:34.097Z,66.20
2022-08-17T03:53:24.976Z,66.61
2022-08-17T03:56:10.628Z,66.82
2022-08-17T03:58:37.853Z,66.74
2022-08-17T04:01:06.743Z,67.59
2022-08-17T04:03:34.031Z,67.24
2022-08-17T04:06:02.198Z,66.60
2022-08-17T04:08:29.931Z,65.30
2022-08-17T04:13:49.203Z,64.31
2022-08-17T04:16:16.819Z,64.40
2022-08-17T04:18:47.163Z,65.13
2022-08-17T04:21:14.336Z,66.31
2022-08-17T04:23:41.501Z,65.93
2022-08-17T04:26:08.818Z,67.24
2022-08-17T04:28:36.004Z,66.38
2022-08-17T04:31:03.251Z,66.35
2022-08-17T04:33:30.999Z,65.93
2022-08-17T04:38:52.289Z,65.28
2022-08-17T04:41:38.313Z,64.51
2022-08-17T04:44:11.555Z,65.10
2022-08-17T04:46:39.264Z,65.31
2022-08-17T04:49:09.195Z,63.85
2022-08-17T04:51:39.746Z,63.28
2022-08-17T04:54:20.817Z,63.09
2022-08-17T04:59:38.991Z,64.38
2022-08-17T05:02:06.073Z,64.36
2022-08-17T05:04:35.155Z,65.01
2022-08-17T05:07:03.226Z,64.12
2022-08-17T05:09:30.987Z,63.53
2022-08-17T05:12:03.862Z,63.27
2022-08-17T05:14:33.097Z,62.44
2022-08-17T05:17:01.984Z,63.14
2022-08-17T05:19:34.713Z,62.14
2022-08-17T05:22:05.694Z,61.43
2022-08-17T05:24:42.531Z,61.85
2022-08-17T05:27:18.824Z,60.11
2022-08-17T05:29:46.355Z,58.89
2022-08-17T05:32:39.084Z,55.59
2022-08-17T05:35:01.284Z,53.13
2022-08-17T05:37:28.648Z,50.24
2022-08-17T05:39:55.868Z,49.03
2022-08-17T05:42:24.189Z,47.63
2022-08-17T05:44:51.416Z,49.03
2022-08-17T05:47:18.543Z,47.59
2022-08-17T05:49:48.881Z,48.11
2022-08-17T05:52:19.743Z,47.93
2022-08-17T05:57:53.310Z,45.03
2022-08-17T06:00:26.350Z,43.80
2022-08-17T06:09:37.653Z,41.47
2022-08-17T06:12:30.665Z,43.11
2022-08-17T06:15:11.308Z,41.65
2022-08-17T06:17:39.007Z,42.26
2022-08-17T06:20:11.401Z,41.85
2022-08-17T06:22:45.357Z,39.04
2022-08-17T06:25:35.650Z,40.26
2022-08-17T06:28:05.920Z,40.08
2022-08-17T06:30:59.218Z,39.10
2022-08-17T06:33:34.455Z,37.98
2022-08-17T06:36:34.070Z,38.48
2022-08-17T06:39:31.925Z,38.56
2022-08-17T06:43:04.981Z,37.54
2022-08-17T06:45:36.658Z,36.79
2022-08-17T06:48:15.243Z,35.44
2022-08-17T06:50:49.155Z,38.59
2022-08-17T06:53:19.042Z,37.52
2022-08-17T06:56:08.937Z,36.25
2022-08-17T06:58:40.233Z,36.12
2022-08-17T07:01:28.342Z,36.48
2022-08-17T07:04:17.264Z,35.93
2022-08-17T07:12:45.887Z,36.70
2022-08-17T07:15:20.071Z,34.44
2022-08-17T07:17:48.520Z,34.88
2022-08-17T07:20:20.871Z,36.76
2022-08-17T07:26:05.549Z,33.40
2022-08-17T07:28:34.922Z,33.70
2022-08-17T07:31:04.701Z,33.56
2022-08-17T07:33:34.029Z,33.46
2022-08-17T07:36:01.628Z,34.10
2022-08-17T07:38:33.939Z,34.24
2022-08-17T07:41:06.307Z,33.86
2022-08-17T07:43:39.457Z,34.08
2022-08-17T07:46:34.248Z,32.24
2022-08-17T07:49:03.215Z,31.96
2022-08-17T07:51:33.873Z,31.96
2022-08-17T07:54:22.368Z,31.88
2022-08-17T07:56:51.209Z,31.86
2022-08-17T07:59:40.740Z,32.29
2022-08-17T08:02:17.092Z,32.86
2022-08-17T08:07:52.277Z,32.40
2022-08-17T08:10:35.621Z,31.30
2022-08-17T08:13:25.335Z,31.34
2022-08-17T08:15:55.833Z,30.91
2022-08-17T08:18:54.995Z,28.92
2022-08-17T08:21:33.383Z,30.57
2022-08-17T08:24:22.448Z,31.66
2022-08-17T08:27:09.851Z,31.71
2022-08-17T08:29:57.686Z,28.75
2022-08-17T08:33:00.129Z,30.04
2022-08-17T08:35:42.047Z,30.62
2022-08-17T08:38:40.213Z,30.35
2022-08-17T08:41:18.662Z,30.22
2022-08-17T08:44:01.670Z,28.33
2022-08-17T08:46:43.907Z,29.40
2022-08-17T08:49:45.150Z,31.38
2022-08-17T08:52:39.997Z,29.21
2022-08-17T08:55:27.120Z,28.41
2022-08-17T08:57:54.212Z,29.06
2022-08-17T09:00:24.732Z,28.50
2022-08-17T09:03:49.732Z,29.41
2022-08-17T09:06:33.211Z,28.98
2022-08-17T09:09:15.101Z,27.84
2022-08-17T09:12:02.255Z,27.20
2022-08-17T09:14:45.263Z,26.88
2022-08-17T09:17:19.539Z,25.43
2022-08-17T09:19:54.301Z,25.49
2022-08-17T09:22:52.730Z,27.25
2022-08-17T09:25:27.036Z,28.96
2022-08-17T09:28:16.345Z,29.82
2022-08-17T09:30:47.142Z,30.51
2022-08-17T09:33:19.608Z,32.42
2022-08-17T09:36:05.474Z,32.04
2022-08-17T09:38:45.171Z,32.99
2022-08-17T09:41:15.950Z,31.93
2022-08-17T09:43:58.233Z,31.58
2022-08-17T09:46:30.698Z,32.36
2022-08-17T09:49:45.902Z,32.81
2022-08-17T09:52:23.854Z,31.61
2022-08-17T09:54:53.441Z,31.80
2022-08-17T09:57:30.332Z,32.24
2022-08-17T10:00:17.181Z,32.41
2022-08-17T10:03:16.081Z,32.89
2022-08-17T10:05:49.400Z,31.98
2022-08-17T10:08:27.753Z,32.08
2022-08-17T10:11:08.077Z,33.12
2022-08-17T10:14:07.874Z,33.29
2022-08-17T10:17:05.023Z,33.02
2022-08-17T10:19:45.324Z,32.07
2022-08-17T10:26:04.724Z,31.38
2022-08-17T10:28:39.480Z,31.57
2022-08-17T10:34:27.231Z,30.97
2022-08-17T10:37:21.685Z,31.69
2022-08-17T10:40:26.372Z,31.97
2022-08-17T10:43:20.961Z,31.60
2022-08-17T10:46:31.191Z,32.69
2022-08-17T10:49:17.142Z,31.92
2022-08-17T10:51:50.168Z,32.31
2022-08-17T10:57:38.181Z,31.54
2022-08-17T11:00:17.295Z,31.36
2022-08-17T11:06:01.649Z,32.48
2022-08-17T11:08:58.348Z,32.00
2022-08-17T11:11:49.953Z,30.67
2022-08-17T11:14:41.274Z,31.72
2022-08-17T11:17:19.122Z,31.96
2022-08-17T11:19:49.266Z,32.58
2022-08-17T11:22:42.568Z,32.94
2022-08-17T11:25:15.490Z,31.13
2022-08-17T11:27:43.966Z,32.52
2022-08-17T11:30:32.916Z,32.72
2022-08-17T11:33:29.666Z,32.89
2022-08-17T11:36:23.673Z,32.54
2022-08-17T11:42:34.351Z,32.56
2022-08-17T11:45:32.473Z,30.55
2022-08-17T11:48:56.178Z,31.11
2022-08-17T11:51:44.695Z,31.93
2022-08-17T11:54:38.004Z,30.56
2022-08-17T11:57:43.069Z,31.17
2022-08-17T12:00:47.061Z,31.72
2022-08-17T12:03:38.931Z,30.67
2022-08-17T12:06:24.904Z,29.79
2022-08-17T12:09:10.259Z,29.50
2022-08-17T12:15:11.749Z,29.59
2022-08-17T12:17:43.041Z,29.31
2022-08-17T12:20:27.923Z,30.24
2022-08-17T12:23:20.229Z,29.08
2022-08-17T12:25:59.583Z,29.18
2022-08-17T12:28:30.283Z,29.22
2022-08-17T12:31:05.877Z,30.79
2022-08-17T12:33:35.813Z,31.42
2022-08-17T12:36:06.539Z,30.72
2022-08-17T12:38:36.196Z,29.86
2022-08-17T12:41:26.101Z,30.11
2022-08-17T12:44:03.730Z,30.90
2022-08-17T12:46:35.819Z,30.13
2022-08-17T12:49:19.653Z,28.92
2022-08-17T12:51:47.771Z,29.04
2022-08-17T12:54:34.028Z,28.45
2022-08-17T12:57:09.093Z,29.04
2022-08-17T12:59:41.451Z,28.98
2022-08-17T13:02:24.573Z,30.06
2022-08-17T13:04:51.833Z,30.31
2022-08-17T13:07:46.694Z,29.57
2022-08-17T13:10:32.867Z,30.41
2022-08-17T13:13:17.678Z,29.59
2022-08-17T13:15:55.358Z,28.88
2022-08-17T13:18:31.572Z,29.16
2022-08-17T13:20:59.372Z,28.62
2022-08-17T13:23:32.403Z,28.83
2022-08-17T13:26:16.047Z,28.33
2022-08-17T13:28:49.712Z,29.42
2022-08-17T13:34:19.012Z,28.15
2022-08-17T13:36:48.824Z,28.56
2022-08-17T13:39:22.635Z,28.47
2022-08-17T13:41:51.699Z,28.41
2022-08-17T13:44:32.925Z,28.70
2022-08-17T13:47:02.332Z,29.86
2022-08-17T13:49:48.128Z,29.23
2022-08-17T13:52:43.135Z,28.62
2022-08-17T13:55:20.874Z,29.65
2022-08-17T14:00:41.460Z,28.40
2022-08-17T14:03:08.560Z,29.17
2022-08-17T14:05:39.435Z,28.88
2022-08-17T14:08:07.224Z,28.49
2022-08-17T14:10:36.420Z,28.04
2022-08-17T14:13:05.312Z,28.59
2022-08-17T14:15:55.725Z,28.90
2022-08-17T14:18:49.835Z,28.76
2022-08-17T14:21:09.595Z,28.59
2022-08-17T14:23:37.380Z,27.84
2022-08-17T14:26:05.083Z,28.33
2022-08-17T14:28:32.308Z,28.25
2022-08-17T14:31:00.750Z,28.74
2022-08-17T14:33:28.828Z,29.35
2022-08-17T14:35:57.602Z,29.27
2022-08-17T14:38:25.233Z,28.83
2022-08-17T14:40:52.667Z,28.60
2022-08-17T14:43:20.957Z,28.47
2022-08-17T14:45:48.144Z,27.73
2022-08-17T14:48:15.909Z,28.18
2022-08-17T14:50:43.983Z,28.06
2022-08-17T14:53:14.903Z,28.34
2022-08-17T14:55:46.979Z,27.92
2022-08-17T14:58:15.845Z,28.34
2022-08-17T15:00:43.677Z,28.44
2022-08-17T15:03:11.804Z,27.87
2022-08-17T15:05:40.130Z,28.06
2022-08-17T15:08:08.250Z,28.31
2022-08-17T15:13:27.640Z,29.16
2022-08-17T15:15:54.909Z,29.35
2022-08-17T15:18:22.718Z,28.58
2022-08-17T15:20:50.287Z,28.86
2022-08-17T15:23:20.914Z,29.10
2022-08-17T15:25:50.112Z,28.38
2022-08-17T15:28:17.376Z,28.72
2022-08-17T15:30:45.085Z,28.50
2022-08-17T15:33:15.136Z,28.61
2022-08-17T15:36:09.146Z,28.76
2022-08-17T15:38:39.683Z,28.94
2022-08-17T15:41:15.114Z,29.42
2022-08-17T15:43:44.522Z,30.89
2022-08-17T15:46:16.606Z,29.42
2022-08-17T15:48:46.141Z,29.17
2022-08-17T15:51:17.643Z,29.25
2022-08-17T15:53:50.624Z,29.55
2022-08-17T15:56:18.600Z,29.73
2022-08-17T15:58:47.259Z,29.61
2022-08-17T16:01:35.178Z,30.10
2022-08-17T16:04:13.283Z,30.54
2022-08-17T16:06:52.528Z,30.51
2022-08-17T16:09:19.650Z,30.85
2022-08-17T16:11:53.685Z,30.88
2022-08-17T16:14:24.578Z,30.92
2022-08-17T16:16:59.622Z,30.96
2022-08-17T16:19:26.759Z,31.15
2022-08-17T16:21:53.925Z,31.63
2022-08-17T16:24:21.059Z,31.99
2022-08-17T16:26:48.260Z,32.17
2022-08-17T16:29:15.436Z,31.92
2022-08-17T16:31:43.276Z,31.91
2022-08-17T16:34:16.813Z,32.17
2022-08-17T16:36:51.735Z,32.69
2022-08-17T16:39:27.510Z,32.22
2022-08-17T16:41:56.100Z,32.29
2022-08-17T16:44:23.773Z,32.35
2022-08-17T16:46:50.945Z,32.60
2022-08-17T16:49:35.574Z,32.45
2022-08-17T16:52:07.647Z,33.01
2022-08-17T16:54:37.986Z,33.39
2022-08-17T16:57:05.591Z,33.29
2022-08-17T16:59:41.894Z,33.43
2022-08-17T17:02:14.579Z,33.72
2022-08-17T17:05:13.763Z,33.60
2022-08-17T17:07:55.488Z,33.94
2022-08-17T17:10:30.129Z,33.94
2022-08-17T17:13:02.547Z,34.59
2022-08-17T17:15:59.859Z,34.78
2022-08-17T17:18:55.443Z,34.78
2022-08-17T17:21:31.289Z,36.20
2022-08-17T17:24:06.820Z,36.11
2022-08-17T17:26:48.884Z,36.43
2022-08-17T17:29:54.430Z,36.62
2022-08-17T17:32:37.798Z,36.91
2022-08-17T17:35:10.551Z,37.16
2022-08-17T17:37:40.028Z,37.28
2022-08-17T17:40:15.282Z,37.52
2022-08-17T17:42:44.004Z,37.41
2022-08-17T17:45:26.039Z,37.70
2022-08-17T17:47:53.552Z,38.07
2022-08-17T17:50:45.918Z,38.41
2022-08-17T17:53:22.516Z,38.55
2022-08-17T17:56:34.274Z,38.52
2022-08-17T17:59:28.430Z,38.43
2022-08-17T18:02:06.979Z,38.17
2022-08-17T18:04:49.504Z,38.15
2022-08-17T18:07:28.603Z,38.45
2022-08-17T18:10:29.740Z,38.54
2022-08-17T18:13:00.709Z,38.43
2022-08-17T18:15:34.051Z,39.03
2022-08-17T18:18:19.807Z,38.67
2022-08-17T18:20:55.973Z,38.53
2022-08-17T18:23:28.215Z,38.92
2022-08-17T18:25:57.123Z,39.08
2022-08-17T18:28:40.814Z,39.16
2022-08-17T18:31:19.695Z,39.18
2022-08-17T18:33:55.585Z,38.59
2022-08-17T18:39:28.666Z,39.33
2022-08-17T18:41:58.395Z,39.69
2022-08-17T18:44:43.974Z,40.20
2022-08-17T18:47:24.962Z,40.04
2022-08-17T18:49:58.563Z,40.78
2022-08-17T18:52:29.915Z,40.04
2022-08-17T18:55:00.228Z,39.75
2022-08-17T18:57:48.456Z,39.55
2022-08-17T19:00:41.904Z,40.13
2022-08-17T19:03:18.387Z,39.65
2022-08-17T19:06:14.970Z,39.53
2022-08-17T19:08:42.103Z,40.15
2022-08-17T19:11:19.157Z,39.31
2022-08-17T19:14:08.000Z,39.40
2022-08-17T19:16:49.188Z,39.78
2022-08-17T19:19:55.365Z,39.59
2022-08-17T19:22:44.740Z,39.62
2022-08-17T19:25:22.811Z,39.61
2022-08-17T19:28:03.114Z,39.45
2022-08-17T19:30:30.820Z,39.75
2022-08-17T19:32:58.463Z,39.48
2022-08-17T19:35:39.939Z,41.16
2022-08-17T19:38:16.295Z,40.72
2022-08-17T19:41:05.243Z,40.83
2022-08-17T19:44:01.923Z,41.06
2022-08-17T19:46:59.504Z,40.86
2022-08-17T19:49:41.027Z,41.72
2022-08-17T19:52:17.744Z,42.15
2022-08-17T19:54:56.495Z,40.89
2022-08-17T19:58:01.404Z,41.46
2022-08-17T20:00:31.181Z,42.18
2022-08-17T20:03:16.152Z,41.47
2022-08-17T20:06:12.139Z,41.99
2022-08-17T20:08:59.363Z,41.97
2022-08-17T20:11:49.051Z,43.10
2022-08-17T20:14:23.629Z,42.97
2022-08-17T20:16:51.370Z,43.94
2022-08-17T20:19:24.461Z,43.08
2022-08-17T20:22:17.648Z,43.56
2022-08-17T20:24:47.933Z,43.68
2022-08-17T20:27:31.548Z,44.00
2022-08-17T20:30:01.752Z,45.27
2022-08-17T20:32:33.298Z,45.62
2022-08-17T20:35:09.298Z,45.66
2022-08-17T20:37:43.202Z,45.35
2022-08-17T20:40:10.370Z,44.64
2022-08-17T20:42:37.614Z,45.06
2022-08-17T20:45:26.435Z,45.01
2022-08-17T20:50:57.579Z,45.97
2022-08-17T20:53:59.980Z,46.49
2022-08-17T20:56:50.101Z,47.20
2022-08-17T20:59:21.218Z,48.59
2022-08-17T21:02:21.720Z,48.93
2022-08-17T21:04:52.850Z,48.53
2022-08-17T21:07:33.137Z,48.71
2022-08-17T21:10:21.668Z,48.93
2022-08-17T21:13:14.001Z,48.93
2022-08-17T21:15:49.308Z,48.91
2022-08-17T21:18:29.265Z,49.79
2022-08-17T21:21:52.254Z,50.84
2022-08-17T21:24:51.803Z,51.46
2022-08-17T21:27:34.801Z,50.76
2022-08-17T21:30:01.957Z,51.36
2022-08-17T21:32:36.224Z,51.15
2022-08-17T21:35:25.852Z,51.13
2022-08-17T21:37:58.983Z,51.47
2022-08-17T21:40:30.031Z,52.29
2022-08-17T21:43:04.762Z,51.84
2022-08-17T21:48:45.229Z,52.19
2022-08-17T21:51:20.722Z,52.49
2022-08-17T21:53:50.918Z,51.99
2022-08-17T21:56:46.792Z,52.30
2022-08-17T21:59:19.797Z,52.92
2022-08-17T22:01:58.631Z,53.16
2022-08-17T22:04:40.700Z,52.88
2022-08-17T22:07:11.071Z,52.41
2022-08-17T22:09:47.689Z,53.57
2022-08-17T22:12:24.236Z,52.97
2022-08-17T22:15:06.010Z,52.37
2022-08-17T22:17:35.917Z,52.35
2022-08-17T22:20:18.814Z,52.41
2022-08-17T22:23:04.664Z,52.27
2022-08-17T22:25:56.155Z,51.94
2022-08-17T22:29:01.910Z,51.61
2022-08-17T22:31:50.991Z,51.84
2022-08-17T22:34:18.181Z,52.61
2022-08-17T22:36:45.957Z,53.18
2022-08-17T22:39:13.404Z,52.51
2022-08-17T22:41:50.558Z,53.20
2022-08-17T22:44:31.730Z,52.92
2022-08-17T22:47:01.025Z,53.91
2022-08-17T22:49:53.812Z,53.68
2022-08-17T22:53:00.835Z,53.89
2022-08-17T22:55:49.385Z,53.80
2022-08-17T22:58:38.329Z,53.94
2022-08-17T23:01:33.347Z,54.67
2022-08-17T23:04:13.182Z,54.48
2022-08-17T23:06:43.646Z,54.28
2022-08-17T23:09:10.759Z,54.40
2022-08-17T23:11:49.331Z,54.40
2022-08-17T23:14:19.835Z,54.29
2022-08-17T23:16:48.679Z,53.83
2022-08-17T23:19:19.792Z,54.67
2022-08-17T23:21:48.741Z,54.21
2022-08-17T23:24:26.214Z,54.43
2022-08-17T23:26:54.624Z,54.06
2022-08-17T23:29:22.535Z,53.96
2022-08-17T23:31:51.077Z,54.01
2022-08-17T23:34:18.626Z,54.30
2022-08-17T23:36:52.277Z,54.37
2022-08-17T23:39:24.606Z,54.65
2022-08-17T23:41:58.172Z,55.79
2022-08-17T23:44:26.940Z,55.86
2022-08-17T23:46:54.614Z,56.83
2022-08-17T23:49:21.786Z,57.10
2022-08-17T23:51:49.453Z,57.55
2022-08-17T23:54:35.553Z,58.08
2022-08-17T23:57:04.845Z,59.25
2022-08-17T23:59:33.868Z,59.48
